createdAt,value
2022-10-22T00:01:11.550Z,43.11
2022-10-22T00:03:45.366Z,43.16
2022-10-22T00:06:17.599Z,43.33
2022-10-22T00:08:49.943Z,43.44
2022-10-22T00:11:22.943Z,43.36
2022-10-22T00:13:55.181Z,43.76
2022-10-22T00:16:27.580Z,43.80
2022-10-22T00:18:59.959Z,43.78
2022-10-22T00:21:32.202Z,43.88
2022-10-22T00:24:05.150Z,43.94
2022-10-22T00:26:37.418Z,43.78
2022-10-22T00:29:09.904Z,43.96
2022-10-22T00:31:42.383Z,43.90
2022-10-22T00:34:14.712Z,44.04
2022-10-22T00:37:05.004Z,43.82
2022-10-22T00:39:37.283Z,44.04
2022-10-22T00:42:12.157Z,44.07
2022-10-22T00:45:15.368Z,44.07
2022-10-22T00:47:50.563Z,44.11
2022-10-22T00:50:25.141Z,44.07
2022-10-22T00:52:58.102Z,44.26
2022-10-22T00:55:31.686Z,44.21
2022-10-22T00:58:04.597Z,44.34
2022-10-22T01:00:37.110Z,44.45
2022-10-22T01:03:10.173Z,44.37
2022-10-22T01:05:43.199Z,44.48
2022-10-22T01:08:21.852Z,44.45
2022-10-22T01:11:02.341Z,44.56
2022-10-22T01:13:44.244Z,44.56
2022-10-22T01:16:20.809Z,44.66
2022-10-22T01:18:59.107Z,44.87
2022-10-22T01:21:35.274Z,44.79
2022-10-22T01:24:32.705Z,44.81
2022-10-22T01:27:14.606Z,44.78
2022-10-22T01:29:51.294Z,44.83
2022-10-22T01:32:25.928Z,44.69
2022-10-22T01:35:01.571Z,44.94
2022-10-22T01:37:37.116Z,44.88
2022-10-22T01:40:12.915Z,44.94
2022-10-22T01:49:13.018Z,45.16
2022-10-22T01:58:31.258Z,45.23
2022-10-22T02:01:14.952Z,45.48
2022-10-22T02:03:51.694Z,45.29
2022-10-22T02:06:25.337Z,45.36
2022-10-22T02:08:57.711Z,45.44
2022-10-22T02:11:30.610Z,45.53
2022-10-22T02:14:01.492Z,45.53
2022-10-22T02:16:37.381Z,45.49
2022-10-22T02:19:15.918Z,45.58
2022-10-22T02:21:48.653Z,45.62
2022-10-22T02:24:19.209Z,45.79
2022-10-22T02:26:56.857Z,45.83
2022-10-22T02:29:32.117Z,45.86
2022-10-22T02:32:05.896Z,45.95
2022-10-22T02:34:38.216Z,45.92
2022-10-22T02:37:11.287Z,46.11
2022-10-22T02:39:44.281Z,46.02
2022-10-22T02:42:16.434Z,46.09
2022-10-22T02:44:48.674Z,46.21
2022-10-22T02:47:21.094Z,46.14
2022-10-22T02:49:53.405Z,46.30
2022-10-22T02:52:25.540Z,46.22
2022-10-22T02:54:57.758Z,46.32
2022-10-22T02:57:30.027Z,46.50
2022-10-22T03:00:02.332Z,46.29
2022-10-22T03:08:44.610Z,46.42
2022-10-22T03:11:17.201Z,46.61
2022-10-22T03:13:49.516Z,46.55
2022-10-22T03:16:21.688Z,46.51
2022-10-22T03:18:54.033Z,46.58
2022-10-22T03:21:29.920Z,46.69
2022-10-22T03:24:03.706Z,46.79
2022-10-22T03:26:36.470Z,46.82
2022-10-22T03:29:08.843Z,46.90
2022-10-22T03:31:41.125Z,46.98
2022-10-22T03:43:03.131Z,47.24
2022-10-22T03:45:35.445Z,47.13
2022-10-22T03:48:08.553Z,47.17
2022-10-22T03:50:40.773Z,47.25
2022-10-22T03:53:13.074Z,47.17
2022-10-22T03:55:45.350Z,47.25
2022-10-22T03:58:17.629Z,47.16
2022-10-22T04:00:49.952Z,47.26
2022-10-22T04:03:22.421Z,47.58
2022-10-22T04:05:54.612Z,47.54
2022-10-22T04:08:26.920Z,47.42
2022-10-22T04:10:59.191Z,47.41
2022-10-22T04:13:31.516Z,47.41
2022-10-22T04:16:11.642Z,47.51
2022-10-22T04:18:44.244Z,47.65
2022-10-22T04:21:15.117Z,47.55
2022-10-22T04:23:49.173Z,47.70
2022-10-22T04:26:22.272Z,47.70
2022-10-22T04:28:54.921Z,47.74
2022-10-22T04:31:25.964Z,47.53
2022-10-22T04:33:59.494Z,47.53
2022-10-22T04:36:31.754Z,47.11
2022-10-22T04:39:05.093Z,46.95
2022-10-22T04:41:39.334Z,47.03
2022-10-22T04:44:15.299Z,47.03
2022-10-22T04:46:48.486Z,47.27
2022-10-22T04:49:20.789Z,47.08
2022-10-22T04:51:53.498Z,46.94
2022-10-22T04:54:32.177Z,46.91
2022-10-22T04:57:05.463Z,46.84
2022-10-22T04:59:37.731Z,47.02
2022-10-22T05:02:12.360Z,47.08
2022-10-22T05:04:46.780Z,46.99
2022-10-22T05:10:22.995Z,46.94
2022-10-22T05:12:55.459Z,47.12
2022-10-22T05:15:27.853Z,47.18
2022-10-22T05:18:00.269Z,47.28
2022-10-22T05:20:32.680Z,47.17
2022-10-22T05:23:04.968Z,47.28
2022-10-22T05:25:39.988Z,47.14
2022-10-22T05:28:12.180Z,47.33
2022-10-22T05:30:44.441Z,47.13
2022-10-22T05:33:19.646Z,46.91
2022-10-22T05:35:54.928Z,46.78
2022-10-22T05:39:06.305Z,46.87
2022-10-22T05:41:38.298Z,46.86
2022-10-22T05:44:13.685Z,46.98
2022-10-22T05:46:46.485Z,46.92
2022-10-22T05:49:18.725Z,46.68
2022-10-22T05:51:51.156Z,46.60
2022-10-22T05:54:23.846Z,46.68
2022-10-22T05:56:55.730Z,46.86
2022-10-22T05:59:28.171Z,46.77
2022-10-22T06:01:59.086Z,46.63
2022-10-22T06:04:31.500Z,46.64
2022-10-22T06:07:05.608Z,46.56
2022-10-22T06:09:39.441Z,46.50
2022-10-22T06:12:13.965Z,46.57
2022-10-22T06:14:46.340Z,46.50
2022-10-22T06:17:19.755Z,46.54
2022-10-22T06:19:52.178Z,46.59
2022-10-22T06:22:24.696Z,46.56
2022-10-22T06:25:02.846Z,46.66
2022-10-22T06:27:35.211Z,46.70
2022-10-22T06:30:09.119Z,46.73
2022-10-22T06:32:42.101Z,46.80
2022-10-22T06:35:14.734Z,46.93
2022-10-22T06:37:47.547Z,46.94
2022-10-22T06:40:18.892Z,46.83
2022-10-22T06:42:51.093Z,46.84
2022-10-22T06:45:23.317Z,46.86
2022-10-22T06:47:56.229Z,46.90
2022-10-22T06:50:28.729Z,46.84
2022-10-22T06:53:01.291Z,47.00
2022-10-22T06:55:31.905Z,46.93
2022-10-22T06:58:04.313Z,46.97
2022-10-22T07:00:36.697Z,47.06
2022-10-22T07:03:08.979Z,47.02
2022-10-22T07:05:58.115Z,46.96
2022-10-22T07:08:30.608Z,47.15
2022-10-22T07:11:12.395Z,47.18
2022-10-22T07:13:47.497Z,47.08
2022-10-22T07:16:20.727Z,47.19
2022-10-22T07:18:53.470Z,47.20
2022-10-22T07:21:26.353Z,47.19
2022-10-22T07:23:59.170Z,47.05
2022-10-22T07:31:01.675Z,47.06
2022-10-22T07:33:33.980Z,47.24
2022-10-22T07:36:08.313Z,47.25
2022-10-22T07:38:40.952Z,47.33
2022-10-22T07:41:13.374Z,47.15
2022-10-22T07:43:46.421Z,47.32
2022-10-22T07:46:19.099Z,47.34
2022-10-22T07:48:51.655Z,47.34
2022-10-22T07:51:23.927Z,47.28
2022-10-22T07:53:56.077Z,47.33
2022-10-22T07:56:28.194Z,47.27
2022-10-22T08:01:37.356Z,47.33
2022-10-22T08:04:10.034Z,47.22
2022-10-22T08:06:44.456Z,47.20
2022-10-22T08:09:18.140Z,47.24
2022-10-22T08:11:50.250Z,47.20
2022-10-22T08:14:22.402Z,47.21
2022-10-22T08:16:54.547Z,47.21
2022-10-22T08:19:28.885Z,47.26
2022-10-22T08:22:01.051Z,47.18
2022-10-22T08:24:33.295Z,47.05
2022-10-22T08:27:05.402Z,47.11
2022-10-22T08:29:37.542Z,47.10
2022-10-22T08:32:09.878Z,47.16
2022-10-22T08:34:42.164Z,47.07
2022-10-22T08:37:14.542Z,47.12
2022-10-22T08:39:46.656Z,47.10
2022-10-22T08:42:38.983Z,47.02
2022-10-22T08:45:16.859Z,47.01
2022-10-22T08:48:08.677Z,47.02
2022-10-22T08:50:43.925Z,46.98
2022-10-22T08:53:19.242Z,46.76
2022-10-22T08:55:53.238Z,46.68
2022-10-22T08:58:31.253Z,46.58
2022-10-22T09:01:05.183Z,46.64
2022-10-22T09:03:46.409Z,46.62
2022-10-22T09:06:22.094Z,46.51
2022-10-22T09:08:55.208Z,46.53
2022-10-22T09:11:30.414Z,46.42
2022-10-22T09:14:03.266Z,46.28
2022-10-22T09:16:40.574Z,46.30
2022-10-22T09:19:21.324Z,46.24
2022-10-22T09:21:59.813Z,46.39
2022-10-22T09:24:36.772Z,46.33
2022-10-22T09:27:14.995Z,46.21
2022-10-22T09:29:48.030Z,46.13
2022-10-22T09:32:21.081Z,46.13
2022-10-22T09:34:56.353Z,45.92
2022-10-22T09:37:31.106Z,45.96
2022-10-22T09:40:09.565Z,45.85
2022-10-22T09:42:42.115Z,45.76
2022-10-22T09:45:20.099Z,45.73
2022-10-22T09:48:01.913Z,45.47
2022-10-22T09:50:42.965Z,45.44
2022-10-22T09:53:23.750Z,45.43
2022-10-22T09:55:58.802Z,45.42
2022-10-22T09:58:31.221Z,45.35
2022-10-22T10:01:04.043Z,45.13
2022-10-22T10:03:36.101Z,44.79
2022-10-22T10:06:08.789Z,44.65
2022-10-22T10:08:41.539Z,44.60
2022-10-22T10:11:16.591Z,44.57
2022-10-22T10:13:55.952Z,44.48
2022-10-22T10:16:40.472Z,44.34
2022-10-22T10:19:26.408Z,44.32
2022-10-22T10:22:06.374Z,44.24
2022-10-22T10:24:50.377Z,43.95
2022-10-22T10:27:29.803Z,44.00
2022-10-22T10:30:06.703Z,43.92
2022-10-22T10:32:55.340Z,43.87
2022-10-22T10:35:30.220Z,43.68
2022-10-22T10:38:13.726Z,43.66
2022-10-22T10:40:51.528Z,43.63
2022-10-22T10:43:29.822Z,43.64
2022-10-22T10:46:09.867Z,43.66
2022-10-22T10:48:50.833Z,43.58
2022-10-22T10:51:33.227Z,43.42
2022-10-22T10:54:15.390Z,43.36
2022-10-22T10:56:51.959Z,43.31
2022-10-22T10:59:32.159Z,43.25
2022-10-22T11:02:20.242Z,43.15
2022-10-22T11:05:01.973Z,43.09
2022-10-22T11:07:52.289Z,43.08
2022-10-22T11:10:32.777Z,42.96
2022-10-22T11:13:12.447Z,42.92
2022-10-22T11:15:48.853Z,42.90
2022-10-22T11:18:29.148Z,42.91
2022-10-22T11:21:21.124Z,42.81
2022-10-22T11:23:56.178Z,42.72
2022-10-22T11:26:37.564Z,42.66
2022-10-22T11:29:14.755Z,42.54
2022-10-22T11:31:47.432Z,42.60
2022-10-22T11:34:33.552Z,42.57
2022-10-22T11:37:07.756Z,42.48
2022-10-22T11:39:44.678Z,42.43
2022-10-22T11:42:22.587Z,42.48
2022-10-22T11:45:08.926Z,42.32
2022-10-22T11:48:00.940Z,42.30
2022-10-22T11:50:49.264Z,42.28
2022-10-22T11:53:31.061Z,42.24
2022-10-22T11:56:23.440Z,42.27
2022-10-22T11:58:56.795Z,42.01
2022-10-22T12:01:43.883Z,42.07
2022-10-22T12:04:23.804Z,41.99
2022-10-22T12:07:02.352Z,41.87
2022-10-22T12:09:35.421Z,41.88
2022-10-22T12:12:21.523Z,41.89
2022-10-22T12:14:59.985Z,41.88
2022-10-22T12:17:34.137Z,41.87
2022-10-22T12:31:04.589Z,41.53
2022-10-22T12:33:36.913Z,41.28
2022-10-22T12:36:15.616Z,41.05
2022-10-22T12:38:50.111Z,41.00
2022-10-22T12:41:24.590Z,40.82
2022-10-22T12:44:03.483Z,41.04
2022-10-22T12:46:37.429Z,40.93
2022-10-22T12:49:15.984Z,40.98
2022-10-22T12:51:51.976Z,40.88
2022-10-22T12:54:28.799Z,40.67
2022-10-22T12:57:04.457Z,40.68
2022-10-22T12:59:38.780Z,40.69
2022-10-22T13:02:21.495Z,40.65
2022-10-22T13:05:25.053Z,40.52
2022-10-22T13:08:06.733Z,40.42
2022-10-22T13:10:40.679Z,40.38
2022-10-22T13:13:36.579Z,40.37
2022-10-22T13:16:24.666Z,40.24
2022-10-22T13:18:57.342Z,40.12
2022-10-22T13:21:34.363Z,40.13
2022-10-22T13:24:23.169Z,40.16
2022-10-22T13:26:56.634Z,40.10
2022-10-22T13:29:28.813Z,40.06
2022-10-22T13:32:01.255Z,39.96
2022-10-22T13:34:33.970Z,39.87
2022-10-22T13:37:06.770Z,39.89
2022-10-22T13:39:38.913Z,39.98
2022-10-22T13:42:16.888Z,39.83
2022-10-22T13:44:49.982Z,39.81
2022-10-22T13:47:29.066Z,39.70
2022-10-22T13:50:03.064Z,39.68
2022-10-22T13:52:47.692Z,39.54
2022-10-22T13:55:23.458Z,39.81
2022-10-22T13:57:56.529Z,39.59
2022-10-22T14:00:29.200Z,39.69
2022-10-22T14:03:00.810Z,39.59
2022-10-22T14:05:33.823Z,39.51
2022-10-22T14:08:07.303Z,39.54
2022-10-22T14:10:39.634Z,39.59
2022-10-22T14:13:13.463Z,39.53
2022-10-22T14:15:50.755Z,39.47
2022-10-22T14:18:27.839Z,39.51
2022-10-22T14:21:05.443Z,39.42
2022-10-22T14:23:38.632Z,39.42
2022-10-22T14:26:11.966Z,39.34
2022-10-22T14:29:08.020Z,39.37
2022-10-22T14:31:37.430Z,39.34
2022-10-22T14:34:10.440Z,39.37
2022-10-22T14:36:44.333Z,39.39
2022-10-22T14:39:18.839Z,39.26
2022-10-22T14:41:51.486Z,39.33
2022-10-22T14:44:24.398Z,39.33
2022-10-22T14:46:56.813Z,39.33
2022-10-22T14:49:29.361Z,39.25
2022-10-22T14:52:03.675Z,39.20
2022-10-22T14:54:36.031Z,39.19
2022-10-22T14:57:08.898Z,39.32
2022-10-22T14:59:43.593Z,39.31
2022-10-22T15:02:16.849Z,39.49
2022-10-22T15:04:51.135Z,39.50
2022-10-22T15:07:27.641Z,39.45
2022-10-22T15:09:59.806Z,39.41
2022-10-22T15:12:32.048Z,39.42
2022-10-22T15:15:04.150Z,39.27
2022-10-22T15:17:36.400Z,39.32
2022-10-22T15:20:09.589Z,39.33
2022-10-22T15:22:41.815Z,39.27
2022-10-22T15:25:12.443Z,39.23
2022-10-22T15:27:48.877Z,39.23
2022-10-22T15:30:22.516Z,39.27
2022-10-22T15:32:54.587Z,39.31
2022-10-22T15:35:28.338Z,39.43
2022-10-22T15:38:00.510Z,39.33
2022-10-22T15:40:32.663Z,39.31
2022-10-22T15:43:04.748Z,39.45
2022-10-22T15:45:37.052Z,39.23
2022-10-22T15:48:11.364Z,39.38
2022-10-22T15:50:44.463Z,39.45
2022-10-22T15:53:16.512Z,39.41
2022-10-22T15:55:55.334Z,39.32
2022-10-22T15:58:27.545Z,39.43
2022-10-22T16:01:07.377Z,39.37
2022-10-22T16:03:39.552Z,39.21
2022-10-22T16:06:12.098Z,39.27
2022-10-22T16:08:42.642Z,39.36
2022-10-22T16:11:15.931Z,39.37
2022-10-22T16:13:48.006Z,39.31
2022-10-22T16:16:20.136Z,39.38
2022-10-22T16:18:52.304Z,39.34
2022-10-22T16:21:25.324Z,39.44
2022-10-22T16:24:00.161Z,39.48
2022-10-22T16:26:34.452Z,39.51
2022-10-22T16:29:07.308Z,39.60
2022-10-22T16:31:39.702Z,39.43
2022-10-22T16:34:10.229Z,39.53
2022-10-22T16:36:42.477Z,39.64
2022-10-22T16:39:14.666Z,39.48
2022-10-22T16:41:46.969Z,39.52
2022-10-22T16:44:19.102Z,39.59
2022-10-22T16:46:51.288Z,39.58
2022-10-22T16:49:23.425Z,39.61
2022-10-22T16:51:55.643Z,39.67
2022-10-22T16:54:27.769Z,39.72
2022-10-22T16:56:59.857Z,39.85
2022-10-22T16:59:31.941Z,39.71
2022-10-22T17:04:41.220Z,39.60
2022-10-22T17:07:13.269Z,39.67
2022-10-22T17:09:45.494Z,39.82
2022-10-22T17:12:17.689Z,39.83
2022-10-22T17:14:51.174Z,39.94
2022-10-22T17:17:23.338Z,39.84
2022-10-22T17:19:55.518Z,39.78
2022-10-22T17:22:27.796Z,39.84
2022-10-22T17:25:13.311Z,40.01
2022-10-22T17:27:45.886Z,39.96
2022-10-22T17:30:23.483Z,40.22
2022-10-22T17:32:58.589Z,40.32
2022-10-22T17:35:30.871Z,40.47
2022-10-22T17:38:02.997Z,40.32
2022-10-22T17:40:35.109Z,40.24
2022-10-22T17:43:07.242Z,40.07
2022-10-22T17:45:39.367Z,40.33
2022-10-22T17:48:11.592Z,40.39
2022-10-22T17:50:48.220Z,40.11
2022-10-22T17:53:23.633Z,40.00
2022-10-22T17:56:02.158Z,40.11
2022-10-22T17:58:34.312Z,39.98
2022-10-22T18:01:06.859Z,39.99
2022-10-22T18:03:39.005Z,40.01
2022-10-22T18:06:12.272Z,39.94
2022-10-22T18:08:44.476Z,39.84
2022-10-22T18:11:19.491Z,39.74
2022-10-22T18:13:53.447Z,39.88
2022-10-22T18:16:26.096Z,39.86
2022-10-22T18:18:59.469Z,39.81
2022-10-22T18:21:32.723Z,39.97
2022-10-22T18:24:04.945Z,39.87
2022-10-22T18:26:37.131Z,39.98
2022-10-22T18:29:09.286Z,39.94
2022-10-22T18:31:41.476Z,39.85
2022-10-22T18:34:13.967Z,39.82
2022-10-22T18:36:44.706Z,39.77
2022-10-22T18:39:17.289Z,39.83
2022-10-22T18:41:50.941Z,39.89
2022-10-22T18:44:27.801Z,39.89
2022-10-22T18:47:00.805Z,39.82
2022-10-22T18:49:35.142Z,39.87
2022-10-22T18:52:07.825Z,39.78
2022-10-22T18:54:45.623Z,39.81
2022-10-22T18:57:20.704Z,39.84
2022-10-22T18:59:57.229Z,39.88
2022-10-22T19:02:31.731Z,39.82
2022-10-22T19:05:08.303Z,39.90
2022-10-22T19:07:42.392Z,39.86
2022-10-22T19:10:21.253Z,39.92
2022-10-22T19:12:54.201Z,39.93
2022-10-22T19:15:26.812Z,39.94
2022-10-22T19:18:00.578Z,40.01
2022-10-22T19:20:37.122Z,40.07
2022-10-22T19:23:20.719Z,39.95
2022-10-22T19:26:10.157Z,39.97
2022-10-22T19:28:46.178Z,40.03
2022-10-22T19:31:25.342Z,40.03
2022-10-22T19:33:58.606Z,40.13
2022-10-22T19:36:32.897Z,40.11
2022-10-22T19:39:11.263Z,40.04
2022-10-22T19:41:45.852Z,40.09
2022-10-22T19:44:22.571Z,40.10
2022-10-22T19:46:55.305Z,40.21
2022-10-22T19:49:29.991Z,40.21
2022-10-22T19:52:07.775Z,40.26
2022-10-22T19:54:45.679Z,40.25
2022-10-22T19:57:24.097Z,40.30
2022-10-22T19:59:57.551Z,40.31
2022-10-22T20:02:32.658Z,40.41
2022-10-22T20:05:05.380Z,40.37
2022-10-22T20:07:39.392Z,40.37
2022-10-22T20:10:13.328Z,40.41
2022-10-22T20:12:48.412Z,40.30
2022-10-22T20:15:21.690Z,40.40
2022-10-22T20:17:56.659Z,40.42
2022-10-22T20:20:30.152Z,40.47
2022-10-22T20:23:04.891Z,40.48
2022-10-22T20:25:37.463Z,40.52
2022-10-22T20:28:13.642Z,40.65
2022-10-22T20:30:49.500Z,40.61
2022-10-22T20:33:24.538Z,40.55
2022-10-22T20:36:07.708Z,40.65
2022-10-22T20:38:40.301Z,40.66
2022-10-22T20:41:16.915Z,40.74
2022-10-22T20:43:52.037Z,40.68
2022-10-22T20:46:28.903Z,40.71
2022-10-22T20:49:03.470Z,40.80
2022-10-22T20:51:38.266Z,40.72
2022-10-22T20:54:11.466Z,40.79
2022-10-22T20:56:45.037Z,40.69
2022-10-22T20:59:18.255Z,40.74
2022-10-22T21:01:52.881Z,40.78
2022-10-22T21:04:25.889Z,40.91
2022-10-22T21:06:57.316Z,40.71
2022-10-22T21:09:31.705Z,40.96
2022-10-22T21:12:05.584Z,40.94
2022-10-22T21:14:38.469Z,40.97
2022-10-22T21:17:12.277Z,40.99
2022-10-22T21:19:47.568Z,40.96
2022-10-22T21:22:20.399Z,40.99
2022-10-22T21:24:55.418Z,41.08
2022-10-22T21:27:28.075Z,41.11
2022-10-22T21:30:00.191Z,41.15
2022-10-22T21:32:32.721Z,41.17
2022-10-22T21:35:04.977Z,41.21
2022-10-22T21:37:37.476Z,41.25
2022-10-22T21:40:11.894Z,41.11
2022-10-22T21:42:44.141Z,41.29
2022-10-22T21:45:20.010Z,41.28
2022-10-22T21:47:54.320Z,41.39
2022-10-22T21:50:26.555Z,41.33
2022-10-22T21:52:58.682Z,41.46
2022-10-22T21:55:35.160Z,41.40
2022-10-22T21:58:08.931Z,41.44
2022-10-22T22:00:42.232Z,41.62
2022-10-22T22:07:35.877Z,41.57
2022-10-22T22:10:09.988Z,41.58
2022-10-22T22:12:42.345Z,41.62
2022-10-22T22:15:14.956Z,41.71
2022-10-22T22:17:47.045Z,41.67
2022-10-22T22:20:19.467Z,41.64
2022-10-22T22:22:51.877Z,41.83
2022-10-22T22:25:23.966Z,41.89
2022-10-22T22:27:56.382Z,41.95
2022-10-22T22:30:28.578Z,41.89
2022-10-22T22:33:00.867Z,41.95
2022-10-22T22:35:33.275Z,41.94
2022-10-22T22:38:05.666Z,42.00
2022-10-22T22:40:41.345Z,41.96
2022-10-22T22:43:14.617Z,41.98
2022-10-22T22:45:46.750Z,42.05
2022-10-22T22:48:18.945Z,42.06
2022-10-22T22:50:51.137Z,42.05
2022-10-22T22:53:23.566Z,42.06
2022-10-22T22:56:05.350Z,42.12
2022-10-22T22:58:38.054Z,42.14
2022-10-22T23:01:12.653Z,42.10
2022-10-22T23:03:46.210Z,42.10
2022-10-22T23:06:18.851Z,42.15
2022-10-22T23:08:53.215Z,42.21
2022-10-22T23:11:25.898Z,42.23
2022-10-22T23:14:00.341Z,42.24
2022-10-22T23:16:34.170Z,42.29
2022-10-22T23:19:07.964Z,42.24
2022-10-22T23:21:41.509Z,42.32
2022-10-22T23:24:15.769Z,42.31
2022-10-22T23:26:49.618Z,42.35
2022-10-22T23:29:24.575Z,42.36
2022-10-22T23:31:57.381Z,42.40
2022-10-22T23:34:30.746Z,42.48
2022-10-22T23:37:02.962Z,42.41
2022-10-22T23:39:35.089Z,42.57
2022-10-22T23:42:07.348Z,42.57
2022-10-22T23:44:39.529Z,42.43
2022-10-22T23:47:11.705Z,42.39
2022-10-22T23:49:44.009Z,42.53
2022-10-22T23:52:16.145Z,42.52
2022-10-22T23:54:49.574Z,42.56
2022-10-22T23:57:21.789Z,42.49
2022-10-22T23:59:54.071Z,42.53
